sensor_id;sensor_type;location;lat;lon;timestamp;P1;durP1;ratioP1;P2;durP2;ratioP2
13051;SDS011;6592;47.484;9.726;2023-05-13T00:00:24;4.20;;;1.65;;
13051;SDS011;6592;47.484;9.726;2023-05-13T00:02:52;5.00;;;1.63;;
13051;SDS011;6592;47.484;9.726;2023-05-13T00:05:22;3.05;;;1.52;;
13051;SDS011;6592;47.484;9.726;2023-05-13T00:07:50;2.15;;;1.23;;
13051;SDS011;6592;47.484;9.726;2023-05-13T00:10:18;2.47;;;1.20;;
13051;SDS011;6592;47.484;9.726;2023-05-13T00:12:47;3.00;;;1.60;;
13051;SDS011;6592;47.484;9.726;2023-05-13T00:15:15;2.30;;;1.27;;
13051;SDS011;6592;47.484;9.726;2023-05-13T00:17:43;2.45;;;1.30;;
13051;SDS011;6592;47.484;9.726;2023-05-13T00:20:11;4.03;;;1.30;;
13051;SDS011;6592;47.484;9.726;2023-05-13T00:22:41;2.95;;;1.38;;
13051;SDS011;6592;47.484;9.726;2023-05-13T00:25:09;3.83;;;1.30;;
13051;SDS011;6592;47.484;9.726;2023-05-13T00:27:37;2.40;;;1.15;;
13051;SDS011;6592;47.484;9.726;2023-05-13T00:30:06;2.28;;;1.30;;
13051;SDS011;6592;47.484;9.726;2023-05-13T00:32:35;3.00;;;1.45;;
13051;SDS011;6592;47.484;9.726;2023-05-13T00:35:03;3.40;;;1.42;;
13051;SDS011;6592;47.484;9.726;2023-05-13T00:37:32;2.60;;;1.25;;
13051;SDS011;6592;47.484;9.726;2023-05-13T00:40:02;2.40;;;1.40;;
13051;SDS011;6592;47.484;9.726;2023-05-13T00:42:30;6.85;;;1.45;;
13051;SDS011;6592;47.484;9.726;2023-05-13T00:44:58;2.53;;;1.30;;
13051;SDS011;6592;47.484;9.726;2023-05-13T00:47:27;2.33;;;1.20;;
13051;SDS011;6592;47.484;9.726;2023-05-13T00:49:55;2.28;;;1.17;;
13051;SDS011;6592;47.484;9.726;2023-05-13T00:52:24;2.28;;;1.30;;
13051;SDS011;6592;47.484;9.726;2023-05-13T00:54:52;2.72;;;1.30;;
13051;SDS011;6592;47.484;9.726;2023-05-13T00:57:22;3.28;;;1.38;;
13051;SDS011;6592;47.484;9.726;2023-05-13T00:59:50;6.47;;;1.80;;
13051;SDS011;6592;47.484;9.726;2023-05-13T01:02:20;5.15;;;1.70;;
13051;SDS011;6592;47.484;9.726;2023-05-13T01:04:55;7.28;;;1.90;;
13051;SDS011;6592;47.484;9.726;2023-05-13T01:07:43;4.95;;;1.65;;
13051;SDS011;6592;47.484;9.726;2023-05-13T01:10:28;4.63;;;1.73;;
13051;SDS011;6592;47.484;9.726;2023-05-13T01:13:06;5.22;;;2.00;;
13051;SDS011;6592;47.484;9.726;2023-05-13T01:15:38;4.38;;;1.60;;
13051;SDS011;6592;47.484;9.726;2023-05-13T01:18:12;4.75;;;1.95;;
13051;SDS011;6592;47.484;9.726;2023-05-13T01:20:47;3.75;;;1.48;;
13051;SDS011;6592;47.484;9.726;2023-05-13T01:23:17;3.25;;;1.75;;
13051;SDS011;6592;47.484;9.726;2023-05-13T01:25:45;3.38;;;1.60;;
13051;SDS011;6592;47.484;9.726;2023-05-13T01:28:15;3.40;;;1.80;;
13051;SDS011;6592;47.484;9.726;2023-05-13T01:30:44;4.15;;;1.70;;
13051;SDS011;6592;47.484;9.726;2023-05-13T01:33:13;2.88;;;1.60;;
13051;SDS011;6592;47.484;9.726;2023-05-13T01:35:42;3.08;;;1.70;;
13051;SDS011;6592;47.484;9.726;2023-05-13T01:38:11;3.17;;;1.80;;
13051;SDS011;6592;47.484;9.726;2023-05-13T01:40:42;3.13;;;1.60;;
13051;SDS011;6592;47.484;9.726;2023-05-13T01:43:11;2.35;;;1.38;;
13051;SDS011;6592;47.484;9.726;2023-05-13T01:45:40;2.95;;;1.50;;
13051;SDS011;6592;47.484;9.726;2023-05-13T01:48:08;2.50;;;1.40;;
13051;SDS011;6592;47.484;9.726;2023-05-13T01:50:36;5.07;;;1.70;;
13051;SDS011;6592;47.484;9.726;2023-05-13T01:53:04;2.53;;;1.30;;
13051;SDS011;6592;47.484;9.726;2023-05-13T01:55:32;3.83;;;1.60;;
13051;SDS011;6592;47.484;9.726;2023-05-13T01:58:02;2.60;;;1.38;;
13051;SDS011;6592;47.484;9.726;2023-05-13T02:00:30;3.45;;;1.67;;
13051;SDS011;6592;47.484;9.726;2023-05-13T02:02:59;3.00;;;1.60;;
13051;SDS011;6592;47.484;9.726;2023-05-13T02:05:27;4.65;;;1.77;;
13051;SDS011;6592;47.484;9.726;2023-05-13T02:07:56;3.78;;;1.65;;
13051;SDS011;6592;47.484;9.726;2023-05-13T02:10:25;3.20;;;1.73;;
13051;SDS011;6592;47.484;9.726;2023-05-13T02:12:53;5.45;;;1.70;;
13051;SDS011;6592;47.484;9.726;2023-05-13T02:15:23;4.65;;;1.67;;
13051;SDS011;6592;47.484;9.726;2023-05-13T02:17:51;2.83;;;1.48;;
13051;SDS011;6592;47.484;9.726;2023-05-13T02:20:19;4.80;;;1.52;;
13051;SDS011;6592;47.484;9.726;2023-05-13T02:22:48;2.95;;;1.52;;
13051;SDS011;6592;47.484;9.726;2023-05-13T02:25:16;3.25;;;1.67;;
13051;SDS011;6592;47.484;9.726;2023-05-13T02:27:45;6.10;;;1.75;;
13051;SDS011;6592;47.484;9.726;2023-05-13T02:30:13;3.25;;;1.90;;
13051;SDS011;6592;47.484;9.726;2023-05-13T02:32:43;3.92;;;1.42;;
13051;SDS011;6592;47.484;9.726;2023-05-13T02:35:11;3.67;;;1.70;;
13051;SDS011;6592;47.484;9.726;2023-05-13T02:37:40;3.40;;;1.50;;
13051;SDS011;6592;47.484;9.726;2023-05-13T02:40:09;3.45;;;1.50;;
13051;SDS011;6592;47.484;9.726;2023-05-13T02:42:37;3.15;;;1.60;;
13051;SDS011;6592;47.484;9.726;2023-05-13T02:45:06;3.00;;;1.40;;
13051;SDS011;6592;47.484;9.726;2023-05-13T02:47:35;4.22;;;1.65;;
13051;SDS011;6592;47.484;9.726;2023-05-13T02:50:06;2.20;;;1.35;;
13051;SDS011;6592;47.484;9.726;2023-05-13T02:52:35;3.58;;;1.60;;
13051;SDS011;6592;47.484;9.726;2023-05-13T02:55:05;2.58;;;1.40;;
13051;SDS011;6592;47.484;9.726;2023-05-13T02:57:34;2.20;;;1.30;;
13051;SDS011;6592;47.484;9.726;2023-05-13T03:00:04;4.05;;;1.50;;
13051;SDS011;6592;47.484;9.726;2023-05-13T03:02:33;3.13;;;1.50;;
13051;SDS011;6592;47.484;9.726;2023-05-13T03:05:02;2.72;;;1.50;;
13051;SDS011;6592;47.484;9.726;2023-05-13T03:07:32;3.60;;;1.45;;
13051;SDS011;6592;47.484;9.726;2023-05-13T03:10:01;2.88;;;1.50;;
13051;SDS011;6592;47.484;9.726;2023-05-13T03:12:29;4.22;;;1.45;;
13051;SDS011;6592;47.484;9.726;2023-05-13T03:14:58;2.55;;;1.27;;
13051;SDS011;6592;47.484;9.726;2023-05-13T03:17:26;3.55;;;1.23;;
13051;SDS011;6592;47.484;9.726;2023-05-13T03:19:56;2.08;;;1.20;;
13051;SDS011;6592;47.484;9.726;2023-05-13T03:22:24;5.03;;;1.27;;
13051;SDS011;6592;47.484;9.726;2023-05-13T03:24:54;2.78;;;1.10;;
13051;SDS011;6592;47.484;9.726;2023-05-13T03:27:23;4.70;;;1.20;;
13051;SDS011;6592;47.484;9.726;2023-05-13T03:29:51;3.28;;;1.20;;
13051;SDS011;6592;47.484;9.726;2023-05-13T03:32:20;1.85;;;1.00;;
13051;SDS011;6592;47.484;9.726;2023-05-13T03:34:50;2.53;;;1.27;;
13051;SDS011;6592;47.484;9.726;2023-05-13T03:37:18;2.85;;;1.30;;
13051;SDS011;6592;47.484;9.726;2023-05-13T03:39:47;2.53;;;1.20;;
13051;SDS011;6592;47.484;9.726;2023-05-13T03:42:16;2.60;;;1.20;;
13051;SDS011;6592;47.484;9.726;2023-05-13T03:44:44;2.90;;;1.30;;
13051;SDS011;6592;47.484;9.726;2023-05-13T03:47:12;5.65;;;1.50;;
13051;SDS011;6592;47.484;9.726;2023-05-13T03:49:41;2.72;;;1.40;;
13051;SDS011;6592;47.484;9.726;2023-05-13T03:52:09;2.25;;;1.33;;
13051;SDS011;6592;47.484;9.726;2023-05-13T03:54:37;3.97;;;1.55;;
13051;SDS011;6592;47.484;9.726;2023-05-13T03:57:06;3.67;;;1.60;;
13051;SDS011;6592;47.484;9.726;2023-05-13T03:59:35;3.15;;;1.90;;
13051;SDS011;6592;47.484;9.726;2023-05-13T04:02:03;8.38;;;2.25;;
13051;SDS011;6592;47.484;9.726;2023-05-13T04:04:32;4.18;;;1.90;;
13051;SDS011;6592;47.484;9.726;2023-05-13T04:07:00;3.88;;;2.13;;
13051;SDS011;6592;47.484;9.726;2023-05-13T04:09:28;3.08;;;1.80;;
13051;SDS011;6592;47.484;9.726;2023-05-13T04:11:57;3.60;;;1.90;;
13051;SDS011;6592;47.484;9.726;2023-05-13T04:14:25;3.90;;;2.10;;
13051;SDS011;6592;47.484;9.726;2023-05-13T04:16:55;3.63;;;2.15;;
13051;SDS011;6592;47.484;9.726;2023-05-13T04:19:23;3.70;;;2.30;;
13051;SDS011;6592;47.484;9.726;2023-05-13T04:21:51;4.55;;;2.60;;
13051;SDS011;6592;47.484;9.726;2023-05-13T04:24:19;4.07;;;2.38;;
13051;SDS011;6592;47.484;9.726;2023-05-13T04:26:47;3.65;;;2.42;;
13051;SDS011;6592;47.484;9.726;2023-05-13T04:29:15;3.40;;;2.17;;
13051;SDS011;6592;47.484;9.726;2023-05-13T04:31:44;4.25;;;2.60;;
13051;SDS011;6592;47.484;9.726;2023-05-13T04:34:13;4.00;;;2.53;;
13051;SDS011;6592;47.484;9.726;2023-05-13T04:36:41;5.57;;;3.00;;
13051;SDS011;6592;47.484;9.726;2023-05-13T04:39:11;5.93;;;3.35;;
13051;SDS011;6592;47.484;9.726;2023-05-13T04:41:39;5.15;;;2.85;;
13051;SDS011;6592;47.484;9.726;2023-05-13T04:44:08;5.15;;;3.10;;
13051;SDS011;6592;47.484;9.726;2023-05-13T04:46:36;5.13;;;2.95;;
13051;SDS011;6592;47.484;9.726;2023-05-13T04:49:05;6.45;;;2.90;;
13051;SDS011;6592;47.484;9.726;2023-05-13T04:51:35;4.72;;;2.92;;
13051;SDS011;6592;47.484;9.726;2023-05-13T04:54:06;5.05;;;3.03;;
13051;SDS011;6592;47.484;9.726;2023-05-13T04:56:34;5.03;;;3.10;;
13051;SDS011;6592;47.484;9.726;2023-05-13T04:59:03;4.93;;;3.10;;
13051;SDS011;6592;47.484;9.726;2023-05-13T05:01:31;4.93;;;2.75;;
13051;SDS011;6592;47.484;9.726;2023-05-13T05:03:59;8.82;;;3.53;;
13051;SDS011;6592;47.484;9.726;2023-05-13T05:06:28;4.53;;;2.80;;
13051;SDS011;6592;47.484;9.726;2023-05-13T05:08:58;5.30;;;2.95;;
13051;SDS011;6592;47.484;9.726;2023-05-13T05:11:26;6.65;;;3.08;;
13051;SDS011;6592;47.484;9.726;2023-05-13T05:13:54;5.43;;;3.03;;
13051;SDS011;6592;47.484;9.726;2023-05-13T05:16:22;8.90;;;3.65;;
13051;SDS011;6592;47.484;9.726;2023-05-13T05:18:50;5.68;;;3.40;;
13051;SDS011;6592;47.484;9.726;2023-05-13T05:21:18;7.07;;;3.65;;
13051;SDS011;6592;47.484;9.726;2023-05-13T05:23:47;5.93;;;3.78;;
13051;SDS011;6592;47.484;9.726;2023-05-13T05:26:16;6.18;;;3.50;;
13051;SDS011;6592;47.484;9.726;2023-05-13T05:28:45;10.85;;;3.50;;
13051;SDS011;6592;47.484;9.726;2023-05-13T05:31:13;5.80;;;3.35;;
13051;SDS011;6592;47.484;9.726;2023-05-13T05:33:41;5.30;;;3.22;;
13051;SDS011;6592;47.484;9.726;2023-05-13T05:36:09;5.90;;;3.35;;
13051;SDS011;6592;47.484;9.726;2023-05-13T05:38:37;6.10;;;3.15;;
13051;SDS011;6592;47.484;9.726;2023-05-13T05:41:06;7.13;;;3.42;;
13051;SDS011;6592;47.484;9.726;2023-05-13T05:43:36;6.22;;;3.60;;
13051;SDS011;6592;47.484;9.726;2023-05-13T05:46:04;6.07;;;3.60;;
13051;SDS011;6592;47.484;9.726;2023-05-13T05:48:33;8.38;;;3.85;;
13051;SDS011;6592;47.484;9.726;2023-05-13T05:51:01;8.80;;;4.57;;
13051;SDS011;6592;47.484;9.726;2023-05-13T05:53:29;8.55;;;4.20;;
13051;SDS011;6592;47.484;9.726;2023-05-13T05:55:58;7.57;;;4.40;;
13051;SDS011;6592;47.484;9.726;2023-05-13T05:58:26;9.32;;;4.65;;
13051;SDS011;6592;47.484;9.726;2023-05-13T06:00:55;9.68;;;4.95;;
13051;SDS011;6592;47.484;9.726;2023-05-13T06:05:54;8.68;;;4.63;;
13051;SDS011;6592;47.484;9.726;2023-05-13T06:08:22;8.05;;;4.78;;
13051;SDS011;6592;47.484;9.726;2023-05-13T06:10:56;9.18;;;4.82;;
13051;SDS011;6592;47.484;9.726;2023-05-13T06:13:24;10.20;;;5.18;;
13051;SDS011;6592;47.484;9.726;2023-05-13T06:15:53;11.25;;;5.53;;
13051;SDS011;6592;47.484;9.726;2023-05-13T06:18:22;10.18;;;5.47;;
13051;SDS011;6592;47.484;9.726;2023-05-13T06:20:52;9.75;;;5.53;;
13051;SDS011;6592;47.484;9.726;2023-05-13T06:23:20;10.25;;;5.57;;
13051;SDS011;6592;47.484;9.726;2023-05-13T06:25:48;8.40;;;5.28;;
13051;SDS011;6592;47.484;9.726;2023-05-13T06:28:17;10.63;;;4.70;;
13051;SDS011;6592;47.484;9.726;2023-05-13T06:30:45;8.07;;;4.50;;
13051;SDS011;6592;47.484;9.726;2023-05-13T06:33:13;7.28;;;4.03;;
13051;SDS011;6592;47.484;9.726;2023-05-13T06:35:42;6.53;;;4.00;;
13051;SDS011;6592;47.484;9.726;2023-05-13T06:38:14;6.18;;;3.65;;
13051;SDS011;6592;47.484;9.726;2023-05-13T06:40:43;8.65;;;3.75;;
13051;SDS011;6592;47.484;9.726;2023-05-13T06:43:12;6.00;;;3.72;;
13051;SDS011;6592;47.484;9.726;2023-05-13T06:45:41;7.18;;;4.20;;
13051;SDS011;6592;47.484;9.726;2023-05-13T06:48:09;9.05;;;4.40;;
13051;SDS011;6592;47.484;9.726;2023-05-13T06:50:39;7.80;;;4.60;;
13051;SDS011;6592;47.484;9.726;2023-05-13T06:53:09;7.75;;;4.57;;
13051;SDS011;6592;47.484;9.726;2023-05-13T06:55:37;9.93;;;5.43;;
13051;SDS011;6592;47.484;9.726;2023-05-13T06:58:08;8.30;;;5.13;;
13051;SDS011;6592;47.484;9.726;2023-05-13T07:00:36;9.20;;;5.10;;
13051;SDS011;6592;47.484;9.726;2023-05-13T07:03:05;10.68;;;5.40;;
13051;SDS011;6592;47.484;9.726;2023-05-13T07:05:34;10.52;;;5.70;;
13051;SDS011;6592;47.484;9.726;2023-05-13T07:08:02;10.98;;;5.63;;
13051;SDS011;6592;47.484;9.726;2023-05-13T07:10:35;8.00;;;4.72;;
13051;SDS011;6592;47.484;9.726;2023-05-13T07:13:03;9.35;;;5.20;;
13051;SDS011;6592;47.484;9.726;2023-05-13T07:15:31;12.25;;;4.80;;
13051;SDS011;6592;47.484;9.726;2023-05-13T07:17:59;7.60;;;4.70;;
13051;SDS011;6592;47.484;9.726;2023-05-13T07:20:28;9.25;;;4.80;;
13051;SDS011;6592;47.484;9.726;2023-05-13T07:22:56;10.10;;;5.65;;
13051;SDS011;6592;47.484;9.726;2023-05-13T07:25:25;8.10;;;4.57;;
13051;SDS011;6592;47.484;9.726;2023-05-13T07:27:54;10.20;;;5.25;;
13051;SDS011;6592;47.484;9.726;2023-05-13T07:30:23;7.97;;;5.15;;
13051;SDS011;6592;47.484;9.726;2023-05-13T07:32:51;8.75;;;5.40;;
13051;SDS011;6592;47.484;9.726;2023-05-13T07:35:19;9.55;;;5.55;;
13051;SDS011;6592;47.484;9.726;2023-05-13T07:37:48;8.20;;;5.30;;
13051;SDS011;6592;47.484;9.726;2023-05-13T07:40:16;9.45;;;5.38;;
13051;SDS011;6592;47.484;9.726;2023-05-13T07:42:46;10.48;;;5.75;;
13051;SDS011;6592;47.484;9.726;2023-05-13T07:45:16;10.55;;;6.20;;
13051;SDS011;6592;47.484;9.726;2023-05-13T07:47:44;11.18;;;5.97;;
13051;SDS011;6592;47.484;9.726;2023-05-13T07:50:12;9.77;;;6.03;;
13051;SDS011;6592;47.484;9.726;2023-05-13T07:52:41;10.32;;;6.38;;
13051;SDS011;6592;47.484;9.726;2023-05-13T07:55:09;10.40;;;6.00;;
13051;SDS011;6592;47.484;9.726;2023-05-13T07:57:37;10.13;;;5.68;;
13051;SDS011;6592;47.484;9.726;2023-05-13T08:00:06;13.07;;;5.97;;
13051;SDS011;6592;47.484;9.726;2023-05-13T08:02:37;11.68;;;6.25;;
13051;SDS011;6592;47.484;9.726;2023-05-13T08:05:05;11.03;;;6.57;;
13051;SDS011;6592;47.484;9.726;2023-05-13T08:07:34;10.35;;;5.72;;
13051;SDS011;6592;47.484;9.726;2023-05-13T08:10:03;9.75;;;5.63;;
13051;SDS011;6592;47.484;9.726;2023-05-13T08:12:31;12.32;;;6.05;;
13051;SDS011;6592;47.484;9.726;2023-05-13T08:15:00;11.00;;;6.40;;
13051;SDS011;6592;47.484;9.726;2023-05-13T08:17:29;9.02;;;5.65;;
13051;SDS011;6592;47.484;9.726;2023-05-13T08:19:59;11.25;;;6.45;;
13051;SDS011;6592;47.484;9.726;2023-05-13T08:24:57;8.95;;;5.32;;
13051;SDS011;6592;47.484;9.726;2023-05-13T08:27:26;9.65;;;5.75;;
13051;SDS011;6592;47.484;9.726;2023-05-13T08:29:54;10.05;;;5.97;;
13051;SDS011;6592;47.484;9.726;2023-05-13T08:32:22;9.30;;;6.05;;
13051;SDS011;6592;47.484;9.726;2023-05-13T08:34:50;9.23;;;5.70;;
13051;SDS011;6592;47.484;9.726;2023-05-13T08:37:20;9.52;;;5.78;;
13051;SDS011;6592;47.484;9.726;2023-05-13T08:39:48;8.50;;;5.60;;
13051;SDS011;6592;47.484;9.726;2023-05-13T08:42:17;9.60;;;5.80;;
13051;SDS011;6592;47.484;9.726;2023-05-13T08:44:48;9.32;;;5.07;;
13051;SDS011;6592;47.484;9.726;2023-05-13T08:47:20;7.47;;;4.97;;
13051;SDS011;6592;47.484;9.726;2023-05-13T08:49:54;8.95;;;5.38;;
13051;SDS011;6592;47.484;9.726;2023-05-13T08:52:24;10.80;;;5.97;;
13051;SDS011;6592;47.484;9.726;2023-05-13T08:54:52;11.52;;;5.88;;
13051;SDS011;6592;47.484;9.726;2023-05-13T08:57:22;12.30;;;5.38;;
13051;SDS011;6592;47.484;9.726;2023-05-13T08:59:50;8.27;;;5.13;;
13051;SDS011;6592;47.484;9.726;2023-05-13T09:02:18;8.80;;;5.75;;
13051;SDS011;6592;47.484;9.726;2023-05-13T09:04:47;8.77;;;5.45;;
13051;SDS011;6592;47.484;9.726;2023-05-13T09:07:20;10.10;;;6.35;;
13051;SDS011;6592;47.484;9.726;2023-05-13T09:09:49;9.50;;;6.18;;
13051;SDS011;6592;47.484;9.726;2023-05-13T09:15:09;10.02;;;5.97;;
13051;SDS011;6592;47.484;9.726;2023-05-13T09:17:38;9.52;;;5.78;;
13051;SDS011;6592;47.484;9.726;2023-05-13T09:20:09;10.52;;;6.00;;
13051;SDS011;6592;47.484;9.726;2023-05-13T09:22:43;9.23;;;5.55;;
13051;SDS011;6592;47.484;9.726;2023-05-13T09:25:14;8.27;;;5.28;;
13051;SDS011;6592;47.484;9.726;2023-05-13T09:27:46;8.43;;;5.35;;
13051;SDS011;6592;47.484;9.726;2023-05-13T09:30:16;8.90;;;5.40;;
13051;SDS011;6592;47.484;9.726;2023-05-13T09:33:03;9.48;;;5.35;;
13051;SDS011;6592;47.484;9.726;2023-05-13T09:35:33;8.93;;;5.40;;
13051;SDS011;6592;47.484;9.726;2023-05-13T09:38:10;10.07;;;5.38;;
13051;SDS011;6592;47.484;9.726;2023-05-13T09:40:41;7.47;;;4.82;;
13051;SDS011;6592;47.484;9.726;2023-05-13T09:43:17;7.50;;;4.72;;
13051;SDS011;6592;47.484;9.726;2023-05-13T09:45:51;7.30;;;4.63;;
13051;SDS011;6592;47.484;9.726;2023-05-13T09:48:20;8.93;;;4.53;;
13051;SDS011;6592;47.484;9.726;2023-05-13T09:50:49;8.48;;;5.15;;
13051;SDS011;6592;47.484;9.726;2023-05-13T09:53:17;7.60;;;4.95;;
13051;SDS011;6592;47.484;9.726;2023-05-13T09:55:48;8.10;;;5.18;;
13051;SDS011;6592;47.484;9.726;2023-05-13T09:58:17;8.25;;;5.30;;
13051;SDS011;6592;47.484;9.726;2023-05-13T10:00:47;8.88;;;5.10;;
13051;SDS011;6592;47.484;9.726;2023-05-13T10:03:15;8.07;;;5.05;;
13051;SDS011;6592;47.484;9.726;2023-05-13T10:05:44;8.98;;;5.30;;
13051;SDS011;6592;47.484;9.726;2023-05-13T10:08:12;10.60;;;5.70;;
13051;SDS011;6592;47.484;9.726;2023-05-13T10:10:41;12.35;;;5.30;;
13051;SDS011;6592;47.484;9.726;2023-05-13T10:13:13;8.85;;;5.53;;
13051;SDS011;6592;47.484;9.726;2023-05-13T10:15:47;9.55;;;5.20;;
13051;SDS011;6592;47.484;9.726;2023-05-13T10:18:16;7.63;;;5.28;;
13051;SDS011;6592;47.484;9.726;2023-05-13T10:20:45;8.10;;;5.30;;
13051;SDS011;6592;47.484;9.726;2023-05-13T10:23:19;7.20;;;4.80;;
13051;SDS011;6592;47.484;9.726;2023-05-13T10:25:48;9.35;;;5.78;;
13051;SDS011;6592;47.484;9.726;2023-05-13T10:28:18;11.38;;;6.10;;
13051;SDS011;6592;47.484;9.726;2023-05-13T10:30:48;8.90;;;5.30;;
13051;SDS011;6592;47.484;9.726;2023-05-13T10:33:17;9.23;;;5.18;;
13051;SDS011;6592;47.484;9.726;2023-05-13T10:35:58;8.45;;;5.30;;
13051;SDS011;6592;47.484;9.726;2023-05-13T10:38:41;8.88;;;4.97;;
13051;SDS011;6592;47.484;9.726;2023-05-13T10:41:29;9.52;;;5.18;;
13051;SDS011;6592;47.484;9.726;2023-05-13T10:44:20;7.93;;;5.10;;
13051;SDS011;6592;47.484;9.726;2023-05-13T10:46:49;8.40;;;5.18;;
13051;SDS011;6592;47.484;9.726;2023-05-13T10:49:18;9.88;;;5.28;;
13051;SDS011;6592;47.484;9.726;2023-05-13T10:51:50;8.32;;;4.95;;
13051;SDS011;6592;47.484;9.726;2023-05-13T10:54:18;8.20;;;5.05;;
13051;SDS011;6592;47.484;9.726;2023-05-13T10:56:54;7.63;;;5.18;;
13051;SDS011;6592;47.484;9.726;2023-05-13T10:59:25;8.30;;;5.47;;
13051;SDS011;6592;47.484;9.726;2023-05-13T11:01:56;7.00;;;4.93;;
13051;SDS011;6592;47.484;9.726;2023-05-13T11:06:56;8.57;;;5.13;;
13051;SDS011;6592;47.484;9.726;2023-05-13T11:09:47;12.48;;;5.13;;
13051;SDS011;6592;47.484;9.726;2023-05-13T11:12:16;8.88;;;5.20;;
13051;SDS011;6592;47.484;9.726;2023-05-13T11:14:46;8.77;;;5.18;;
13051;SDS011;6592;47.484;9.726;2023-05-13T11:17:16;7.97;;;5.20;;
13051;SDS011;6592;47.484;9.726;2023-05-13T11:19:46;8.55;;;5.45;;
13051;SDS011;6592;47.484;9.726;2023-05-13T11:22:17;7.80;;;4.88;;
13051;SDS011;6592;47.484;9.726;2023-05-13T11:25:01;8.05;;;5.13;;
13051;SDS011;6592;47.484;9.726;2023-05-13T11:27:32;8.80;;;5.50;;
13051;SDS011;6592;47.484;9.726;2023-05-13T11:30:07;8.95;;;5.53;;
13051;SDS011;6592;47.484;9.726;2023-05-13T11:32:52;8.38;;;5.15;;
13051;SDS011;6592;47.484;9.726;2023-05-13T11:35:23;9.95;;;5.45;;
13051;SDS011;6592;47.484;9.726;2023-05-13T11:37:52;7.95;;;5.03;;
13051;SDS011;6592;47.484;9.726;2023-05-13T11:40:25;8.60;;;5.22;;
13051;SDS011;6592;47.484;9.726;2023-05-13T11:42:54;9.95;;;5.60;;
13051;SDS011;6592;47.484;9.726;2023-05-13T11:45:24;9.38;;;5.38;;
13051;SDS011;6592;47.484;9.726;2023-05-13T11:47:53;8.53;;;5.70;;
13051;SDS011;6592;47.484;9.726;2023-05-13T11:50:26;8.25;;;5.50;;
13051;SDS011;6592;47.484;9.726;2023-05-13T11:52:56;8.25;;;5.30;;
13051;SDS011;6592;47.484;9.726;2023-05-13T11:55:26;9.20;;;5.22;;
13051;SDS011;6592;47.484;9.726;2023-05-13T11:57:56;8.18;;;4.93;;
13051;SDS011;6592;47.484;9.726;2023-05-13T12:00:27;8.82;;;5.45;;
13051;SDS011;6592;47.484;9.726;2023-05-13T12:02:56;8.30;;;4.70;;
13051;SDS011;6592;47.484;9.726;2023-05-13T12:05:25;9.85;;;4.95;;
13051;SDS011;6592;47.484;9.726;2023-05-13T12:07:55;8.20;;;5.13;;
13051;SDS011;6592;47.484;9.726;2023-05-13T12:10:24;7.38;;;4.57;;
13051;SDS011;6592;47.484;9.726;2023-05-13T12:12:53;8.20;;;5.00;;
13051;SDS011;6592;47.484;9.726;2023-05-13T12:15:21;7.50;;;4.80;;
13051;SDS011;6592;47.484;9.726;2023-05-13T12:17:52;7.40;;;4.90;;
13051;SDS011;6592;47.484;9.726;2023-05-13T12:20:21;9.90;;;4.82;;
13051;SDS011;6592;47.484;9.726;2023-05-13T12:22:51;9.32;;;5.20;;
13051;SDS011;6592;47.484;9.726;2023-05-13T12:28:16;7.65;;;4.57;;
13051;SDS011;6592;47.484;9.726;2023-05-13T12:30:50;7.43;;;4.60;;
13051;SDS011;6592;47.484;9.726;2023-05-13T12:33:21;7.88;;;4.68;;
13051;SDS011;6592;47.484;9.726;2023-05-13T12:35:51;7.53;;;4.32;;
13051;SDS011;6592;47.484;9.726;2023-05-13T12:38:21;7.50;;;4.00;;
13051;SDS011;6592;47.484;9.726;2023-05-13T12:40:50;7.60;;;4.43;;
13051;SDS011;6592;47.484;9.726;2023-05-13T12:43:20;7.45;;;4.65;;
13051;SDS011;6592;47.484;9.726;2023-05-13T12:45:52;8.32;;;4.75;;
13051;SDS011;6592;47.484;9.726;2023-05-13T12:48:23;7.78;;;4.47;;
13051;SDS011;6592;47.484;9.726;2023-05-13T12:50:52;7.33;;;4.43;;
13051;SDS011;6592;47.484;9.726;2023-05-13T12:53:21;8.25;;;4.90;;
13051;SDS011;6592;47.484;9.726;2023-05-13T12:55:50;8.13;;;4.90;;
13051;SDS011;6592;47.484;9.726;2023-05-13T12:58:18;7.82;;;4.97;;
13051;SDS011;6592;47.484;9.726;2023-05-13T13:00:46;7.78;;;4.70;;
13051;SDS011;6592;47.484;9.726;2023-05-13T13:03:14;7.95;;;4.57;;
13051;SDS011;6592;47.484;9.726;2023-05-13T13:05:44;7.80;;;4.88;;
13051;SDS011;6592;47.484;9.726;2023-05-13T13:08:13;7.47;;;4.55;;
13051;SDS011;6592;47.484;9.726;2023-05-13T13:10:41;7.70;;;4.28;;
13051;SDS011;6592;47.484;9.726;2023-05-13T13:13:11;8.48;;;4.50;;
13051;SDS011;6592;47.484;9.726;2023-05-13T13:15:39;7.28;;;4.72;;
13051;SDS011;6592;47.484;9.726;2023-05-13T13:18:08;8.45;;;4.60;;
13051;SDS011;6592;47.484;9.726;2023-05-13T13:20:36;6.93;;;4.57;;
13051;SDS011;6592;47.484;9.726;2023-05-13T13:23:05;8.45;;;4.78;;
13051;SDS011;6592;47.484;9.726;2023-05-13T13:25:34;7.30;;;4.57;;
13051;SDS011;6592;47.484;9.726;2023-05-13T13:28:02;8.45;;;5.25;;
13051;SDS011;6592;47.484;9.726;2023-05-13T13:30:31;6.88;;;4.45;;
13051;SDS011;6592;47.484;9.726;2023-05-13T13:32:59;7.75;;;4.78;;
13051;SDS011;6592;47.484;9.726;2023-05-13T13:35:27;6.80;;;4.28;;
13051;SDS011;6592;47.484;9.726;2023-05-13T13:37:55;7.05;;;3.60;;
13051;SDS011;6592;47.484;9.726;2023-05-13T13:40:25;7.20;;;4.38;;
13051;SDS011;6592;47.484;9.726;2023-05-13T13:42:53;7.90;;;5.00;;
13051;SDS011;6592;47.484;9.726;2023-05-13T13:45:21;7.85;;;5.10;;
13051;SDS011;6592;47.484;9.726;2023-05-13T13:47:50;7.95;;;4.90;;
13051;SDS011;6592;47.484;9.726;2023-05-13T13:50:18;8.05;;;5.25;;
13051;SDS011;6592;47.484;9.726;2023-05-13T13:52:47;8.80;;;5.40;;
13051;SDS011;6592;47.484;9.726;2023-05-13T13:55:17;7.55;;;4.55;;
13051;SDS011;6592;47.484;9.726;2023-05-13T13:57:47;7.45;;;4.47;;
13051;SDS011;6592;47.484;9.726;2023-05-13T14:00:16;7.88;;;4.90;;
13051;SDS011;6592;47.484;9.726;2023-05-13T14:02:44;7.43;;;4.47;;
13051;SDS011;6592;47.484;9.726;2023-05-13T14:05:13;7.57;;;4.40;;
13051;SDS011;6592;47.484;9.726;2023-05-13T14:07:42;7.70;;;4.13;;
13051;SDS011;6592;47.484;9.726;2023-05-13T14:10:10;9.73;;;4.40;;
13051;SDS011;6592;47.484;9.726;2023-05-13T14:12:38;6.68;;;4.10;;
13051;SDS011;6592;47.484;9.726;2023-05-13T14:15:08;6.32;;;4.03;;
13051;SDS011;6592;47.484;9.726;2023-05-13T14:17:37;6.70;;;4.27;;
13051;SDS011;6592;47.484;9.726;2023-05-13T14:20:05;6.55;;;3.97;;
13051;SDS011;6592;47.484;9.726;2023-05-13T14:22:35;8.55;;;4.20;;
13051;SDS011;6592;47.484;9.726;2023-05-13T14:25:04;7.03;;;3.90;;
13051;SDS011;6592;47.484;9.726;2023-05-13T14:27:34;5.70;;;3.23;;
13051;SDS011;6592;47.484;9.726;2023-05-13T14:30:03;5.43;;;3.00;;
13051;SDS011;6592;47.484;9.726;2023-05-13T14:32:34;4.75;;;3.08;;
13051;SDS011;6592;47.484;9.726;2023-05-13T14:35:02;5.35;;;3.00;;
13051;SDS011;6592;47.484;9.726;2023-05-13T14:37:31;5.03;;;3.00;;
13051;SDS011;6592;47.484;9.726;2023-05-13T14:39:59;4.65;;;2.85;;
13051;SDS011;6592;47.484;9.726;2023-05-13T14:42:27;5.30;;;2.95;;
13051;SDS011;6592;47.484;9.726;2023-05-13T14:44:55;3.63;;;2.08;;
13051;SDS011;6592;47.484;9.726;2023-05-13T14:47:23;1.70;;;0.80;;
13051;SDS011;6592;47.484;9.726;2023-05-13T14:49:53;1.52;;;0.60;;
13051;SDS011;6592;47.484;9.726;2023-05-13T14:52:21;1.50;;;0.80;;
13051;SDS011;6592;47.484;9.726;2023-05-13T14:54:49;2.03;;;0.90;;
13051;SDS011;6592;47.484;9.726;2023-05-13T14:57:17;1.75;;;1.00;;
13051;SDS011;6592;47.484;9.726;2023-05-13T14:59:46;3.63;;;1.52;;
13051;SDS011;6592;47.484;9.726;2023-05-13T15:02:14;3.58;;;1.90;;
13051;SDS011;6592;47.484;9.726;2023-05-13T15:04:43;3.17;;;1.60;;
13051;SDS011;6592;47.484;9.726;2023-05-13T15:07:13;2.78;;;1.60;;
13051;SDS011;6592;47.484;9.726;2023-05-13T15:09:41;2.70;;;1.60;;
13051;SDS011;6592;47.484;9.726;2023-05-13T15:12:09;3.03;;;1.80;;
13051;SDS011;6592;47.484;9.726;2023-05-13T15:14:37;2.72;;;1.10;;
13051;SDS011;6592;47.484;9.726;2023-05-13T15:17:05;2.75;;;1.30;;
13051;SDS011;6592;47.484;9.726;2023-05-13T15:22:05;3.40;;;1.27;;
13051;SDS011;6592;47.484;9.726;2023-05-13T15:24:34;4.68;;;2.03;;
13051;SDS011;6592;47.484;9.726;2023-05-13T15:27:04;5.47;;;3.00;;
13051;SDS011;6592;47.484;9.726;2023-05-13T15:29:32;6.05;;;3.33;;